Time;durP1;ratioP1;P1;durP2;ratioP2;P2;SDS_P1;SDS_P2;PMS_P1;PMS_P2;Temp;Humidity;BMP_temperature;BMP_pressure;BME280_temperature;BME280_humidity;BME280_pressure;Samples;Min_cycle;Max_cycle;Signal;HPM_P1;HPM_P2
2022/05/21 00:01:46;;;;;;;11.70;3.10;;;;;;;;;;5013339;28;20108;-72
2022/05/21 00:04:11;;;;;;;11.50;3.28;;;;;;;;;;5013353;28;20117;-72
2022/05/21 00:06:38;;;;;;;11.77;3.20;;;;;;;;;;5013205;28;20103;-68
2022/05/21 00:09:04;;;;;;;13.10;3.30;;;;;;;;;;5013095;28;20053;-70
2022/05/21 00:11:29;;;;;;;13.88;3.50;;;;;;;;;;5011517;28;20025;-69
2022/05/21 00:13:56;;;;;;;11.10;2.90;;;;;;;;;;5013119;28;20076;-68
2022/05/21 00:16:22;;;;;;;11.50;3.17;;;;;;;;;;5012969;28;20096;-72
2022/05/21 00:18:48;;;;;;;12.40;3.33;;;;;;;;;;5013348;28;20425;-72
2022/05/21 00:21:14;;;;;;;9.82;3.42;;;;;;;;;;5012761;28;20481;-72
2022/05/21 00:23:41;;;;;;;11.38;3.15;;;;;;;;;;5012956;28;20113;-70
2022/05/21 00:26:13;;;;;;;11.13;3.17;;;;;;;;;;5013117;28;20030;-71
2022/05/21 00:28:40;;;;;;;12.25;3.10;;;;;;;;;;5012780;28;20160;-69
2022/05/21 00:31:07;;;;;;;10.20;2.92;;;;;;;;;;5012587;28;20026;-71
2022/05/21 00:33:33;;;;;;;10.35;2.95;;;;;;;;;;5013063;28;20022;-71
2022/05/21 00:35:58;;;;;;;8.57;3.30;;;;;;;;;;5012362;28;20409;-72
2022/05/21 00:38:25;;;;;;;8.20;3.17;;;;;;;;;;5012685;28;20108;-72
2022/05/21 00:40:51;;;;;;;10.13;3.22;;;;;;;;;;5012569;28;20022;-72
2022/05/21 00:43:39;;;;;;;9.00;3.00;;;;;;;;;;5012592;28;20100;-68
2022/05/21 00:46:07;;;;;;;7.40;2.85;;;;;;;;;;5012213;28;20041;-72
2022/05/21 00:48:35;;;;;;;10.90;3.30;;;;;;;;;;5012343;28;20454;-67
2022/05/21 00:51:01;;;;;;;12.05;3.38;;;;;;;;;;5012066;28;20065;-74
2022/05/21 00:53:28;;;;;;;9.02;3.50;;;;;;;;;;5012290;28;20065;-73
2022/05/21 00:55:54;;;;;;;10.15;3.10;;;;;;;;;;5010952;28;20473;-70
2022/05/21 01:01:12;;;;;;;8.98;3.30;;;;;;;;;;5012342;28;20040;-69
2022/05/21 01:03:38;;;;;;;11.68;3.40;;;;;;;;;;5012236;28;20069;-68
2022/05/21 01:06:03;;;;;;;12.70;3.60;;;;;;;;;;5012038;28;20057;-69
2022/05/21 01:08:30;;;;;;;11.30;3.28;;;;;;;;;;5012350;28;20109;-68
2022/05/21 01:11:00;;;;;;;8.30;3.15;;;;;;;;;;5011347;28;20026;-71
2022/05/21 01:13:28;;;;;;;12.10;3.05;;;;;;;;;;5012013;28;20088;-71
2022/05/21 01:15:54;;;;;;;9.02;3.30;;;;;;;;;;5011991;28;20038;-71
2022/05/21 01:18:21;;;;;;;8.75;3.20;;;;;;;;;;5012113;28;20029;-70
2022/05/21 01:20:52;;;;;;;11.60;3.55;;;;;;;;;;5011572;28;20470;-69
2022/05/21 01:23:19;;;;;;;10.07;3.22;;;;;;;;;;5011685;28;20085;-71
2022/05/21 01:25:46;;;;;;;8.95;3.60;;;;;;;;;;5011598;28;20029;-71
2022/05/21 01:28:14;;;;;;;11.02;3.10;;;;;;;;;;5011751;28;20113;-71
2022/05/21 01:30:58;;;;;;;10.07;3.50;;;;;;;;;;5011739;28;20018;-67
2022/05/21 01:33:30;;;;;;;12.30;3.38;;;;;;;;;;5011814;28;20453;-73
2022/05/21 01:35:58;;;;;;;11.80;3.30;;;;;;;;;;5011369;28;20033;-70
2022/05/21 01:38:24;;;;;;;12.27;3.20;;;;;;;;;;5011314;28;20029;-71
2022/05/21 01:40:50;;;;;;;13.60;3.65;;;;;;;;;;5011585;28;20025;-71
2022/05/21 01:46:00;;;;;;;10.18;3.40;;;;;;;;;;5011724;28;20128;-71
2022/05/21 01:48:28;;;;;;;8.35;3.20;;;;;;;;;;5011413;28;20125;-71
2022/05/21 01:50:55;;;;;;;8.82;3.30;;;;;;;;;;5011103;28;20033;-70
2022/05/21 01:53:22;;;;;;;12.93;3.58;;;;;;;;;;5011188;28;20037;-69
2022/05/21 01:55:48;;;;;;;7.43;2.90;;;;;;;;;;5010976;28;20057;-71
2022/05/21 01:58:14;;;;;;;9.55;3.50;;;;;;;;;;5011101;28;20050;-68
2022/05/21 02:00:41;;;;;;;13.13;3.38;;;;;;;;;;5011200;28;20076;-67
2022/05/21 02:03:08;;;;;;;8.50;3.58;;;;;;;;;;5011224;28;20026;-73
2022/05/21 02:05:34;;;;;;;8.05;3.15;;;;;;;;;;5010988;28;20033;-72
2022/05/21 02:08:00;;;;;;;7.78;3.40;;;;;;;;;;5010990;28;20497;-70
2022/05/21 02:10:25;;;;;;;11.57;3.28;;;;;;;;;;5010558;28;20029;-70
2022/05/21 02:12:51;;;;;;;10.70;3.70;;;;;;;;;;5010654;28;20030;-71
2022/05/21 02:15:16;;;;;;;10.05;3.15;;;;;;;;;;5010949;28;20037;-70
2022/05/21 02:17:42;;;;;;;9.75;3.38;;;;;;;;;;5010851;28;20033;-68
2022/05/21 02:20:08;;;;;;;10.60;3.30;;;;;;;;;;5010842;28;20037;-71
2022/05/21 02:22:36;;;;;;;12.38;3.38;;;;;;;;;;5009800;28;20061;-69
2022/05/21 02:25:03;;;;;;;7.72;2.95;;;;;;;;;;5010686;28;20038;-69
2022/05/21 02:27:28;;;;;;;8.05;3.15;;;;;;;;;;5010573;28;20551;-70
2022/05/21 02:29:54;;;;;;;10.80;3.42;;;;;;;;;;5010597;28;20034;-73
2022/05/21 02:32:19;;;;;;;16.13;3.70;;;;;;;;;;5010414;28;20025;-70
2022/05/21 02:34:44;;;;;;;10.52;3.28;;;;;;;;;;5010447;28;20615;-68
2022/05/21 02:39:54;;;;;;;11.85;3.58;;;;;;;;;;5010673;28;20033;-70
2022/05/21 02:45:03;;;;;;;7.80;3.60;;;;;;;;;;5010387;28;20045;-72
2022/05/21 02:47:30;;;;;;;8.63;3.33;;;;;;;;;;5010156;28;20022;-71
2022/05/21 02:49:55;;;;;;;12.27;3.40;;;;;;;;;;5010242;28;20394;-71
2022/05/21 02:52:21;;;;;;;11.05;3.35;;;;;;;;;;5009927;28;20030;-72
2022/05/21 02:54:46;;;;;;;10.40;3.60;;;;;;;;;;5010505;28;20026;-73
2022/05/21 02:57:12;;;;;;;10.52;3.75;;;;;;;;;;5010193;28;20030;-70
2022/05/21 02:59:38;;;;;;;9.50;3.45;;;;;;;;;;5010284;28;20018;-70
2022/05/21 03:02:03;;;;;;;11.57;3.60;;;;;;;;;;5010119;28;20136;-67
2022/05/21 03:04:29;;;;;;;8.88;3.50;;;;;;;;;;5010401;28;20488;-74
2022/05/21 03:06:55;;;;;;;9.05;3.30;;;;;;;;;;5010004;28;20026;-70
2022/05/21 03:12:05;;;;;;;8.90;3.70;;;;;;;;;;5009855;28;20401;-70
2022/05/21 03:14:30;;;;;;;12.50;3.85;;;;;;;;;;5010191;28;20474;-75
2022/05/21 03:16:59;;;;;;;11.48;3.67;;;;;;;;;;5010177;28;20176;-70
2022/05/21 03:19:26;;;;;;;7.95;3.30;;;;;;;;;;5010032;28;20520;-70
2022/05/21 03:21:52;;;;;;;10.70;3.53;;;;;;;;;;5009660;28;20370;-70
2022/05/21 03:24:17;;;;;;;14.82;3.55;;;;;;;;;;5009978;28;20026;-69
2022/05/21 03:26:43;;;;;;;12.75;3.58;;;;;;;;;;5009795;28;20030;-72
2022/05/21 03:29:08;;;;;;;11.27;4.07;;;;;;;;;;5009790;28;20022;-72
2022/05/21 03:31:34;;;;;;;13.82;3.75;;;;;;;;;;5010054;28;20485;-68
2022/05/21 03:33:59;;;;;;;12.35;3.75;;;;;;;;;;5010538;28;20022;-71
2022/05/21 03:36:25;;;;;;;10.68;3.80;;;;;;;;;;5013542;28;20477;-73
2022/05/21 03:38:51;;;;;;;7.43;3.42;;;;;;;;;;5013785;28;20022;-69
2022/05/21 03:41:16;;;;;;;11.57;3.90;;;;;;;;;;5013474;28;20033;-68
2022/05/21 03:43:43;;;;;;;11.82;4.15;;;;;;;;;;5013399;28;20401;-68
2022/05/21 03:46:08;;;;;;;10.52;3.80;;;;;;;;;;5013656;28;20033;-68
2022/05/21 03:48:34;;;;;;;14.52;4.57;;;;;;;;;;5013649;28;20081;-67
2022/05/21 03:51:00;;;;;;;11.25;3.80;;;;;;;;;;5013362;28;20030;-70
2022/05/21 03:53:26;;;;;;;14.68;4.00;;;;;;;;;;5013515;28;20021;-71
2022/05/21 03:55:53;;;;;;;12.73;3.95;;;;;;;;;;5013791;28;20036;-68
2022/05/21 03:58:19;;;;;;;14.52;4.18;;;;;;;;;;5013151;28;20485;-68
2022/05/21 04:00:44;;;;;;;11.18;3.97;;;;;;;;;;5013237;28;20058;-67
2022/05/21 04:03:10;;;;;;;14.40;4.15;;;;;;;;;;5013037;28;20049;-67
2022/05/21 04:05:36;;;;;;;13.45;4.18;;;;;;;;;;5013119;28;20512;-67
2022/05/21 04:08:02;;;;;;;12.25;4.13;;;;;;;;;;5013265;28;20032;-69
2022/05/21 04:10:28;;;;;;;11.48;3.70;;;;;;;;;;5013145;28;20030;-68
2022/05/21 04:12:54;;;;;;;13.40;4.00;;;;;;;;;;5013011;28;20022;-68
2022/05/21 04:15:19;;;;;;;12.07;3.88;;;;;;;;;;5013007;28;20030;-69
2022/05/21 04:17:45;;;;;;;16.98;4.45;;;;;;;;;;5012961;28;20036;-67
2022/05/21 04:20:13;;;;;;;12.52;4.30;;;;;;;;;;5013021;28;20033;-67
2022/05/21 04:22:39;;;;;;;11.40;3.58;;;;;;;;;;5012971;28;20505;-67
2022/05/21 04:25:06;;;;;;;9.45;3.83;;;;;;;;;;5012949;28;20131;-68
2022/05/21 04:27:34;;;;;;;10.65;3.90;;;;;;;;;;5012747;28;20026;-67
2022/05/21 04:30:00;;;;;;;14.30;4.18;;;;;;;;;;5012918;28;20539;-70
2022/05/21 04:32:25;;;;;;;14.80;3.97;;;;;;;;;;5012500;28;20030;-72
2022/05/21 04:34:51;;;;;;;11.85;4.18;;;;;;;;;;5012612;28;20026;-73
2022/05/21 04:37:16;;;;;;;10.85;3.65;;;;;;;;;;5012485;28;20040;-70
2022/05/21 04:39:41;;;;;;;11.05;3.55;;;;;;;;;;5012677;28;20026;-72
2022/05/21 04:42:07;;;;;;;13.60;3.90;;;;;;;;;;5012687;28;20022;-73
2022/05/21 04:44:34;;;;;;;11.88;4.20;;;;;;;;;;5012414;28;20424;-70
2022/05/21 04:47:00;;;;;;;10.70;4.00;;;;;;;;;;5011496;28;20087;-71
2022/05/21 04:49:26;;;;;;;10.50;3.72;;;;;;;;;;5012405;28;20441;-67
2022/05/21 04:51:51;;;;;;;13.50;3.75;;;;;;;;;;5012069;28;20425;-71
2022/05/21 04:54:17;;;;;;;8.35;3.90;;;;;;;;;;5012300;28;20038;-68
2022/05/21 04:56:42;;;;;;;8.00;3.83;;;;;;;;;;5012663;28;20033;-71
2022/05/21 04:59:09;;;;;;;13.07;3.85;;;;;;;;;;5012317;28;20057;-70
2022/05/21 05:01:35;;;;;;;9.02;3.80;;;;;;;;;;5012254;28;20060;-70
2022/05/21 05:04:00;;;;;;;11.30;3.65;;;;;;;;;;5012246;28;20057;-73
2022/05/21 05:06:26;;;;;;;11.88;3.55;;;;;;;;;;5010849;28;20064;-70
2022/05/21 05:08:51;;;;;;;10.10;3.78;;;;;;;;;;5011929;28;20419;-68
2022/05/21 05:11:17;;;;;;;10.55;3.97;;;;;;;;;;5012032;28;20463;-70
2022/05/21 05:13:42;;;;;;;9.52;3.47;;;;;;;;;;5012066;28;20026;-71
2022/05/21 05:16:08;;;;;;;13.30;3.83;;;;;;;;;;5011859;28;20033;-67
2022/05/21 05:18:33;;;;;;;11.15;3.88;;;;;;;;;;5011996;28;20033;-70
2022/05/21 05:20:59;;;;;;;7.60;3.42;;;;;;;;;;5011599;28;20029;-68
2022/05/21 05:23:25;;;;;;;15.23;4.00;;;;;;;;;;5011411;28;20076;-68
2022/05/21 05:25:51;;;;;;;9.05;3.40;;;;;;;;;;5011612;28;20580;-72
2022/05/21 05:28:19;;;;;;;7.60;3.63;;;;;;;;;;5011352;28;20389;-71
2022/05/21 05:30:46;;;;;;;8.85;3.50;;;;;;;;;;5012093;28;20229;-71
2022/05/21 05:33:13;;;;;;;13.40;3.67;;;;;;;;;;5011975;28;20053;-70
2022/05/21 05:35:39;;;;;;;11.82;3.70;;;;;;;;;;5011492;28;20430;-70
2022/05/21 05:38:06;;;;;;;10.98;3.45;;;;;;;;;;5011681;28;20026;-72
2022/05/21 05:40:33;;;;;;;11.25;3.63;;;;;;;;;;5011558;28;20026;-73
2022/05/21 05:43:00;;;;;;;9.15;3.60;;;;;;;;;;5011251;28;20018;-74
2022/05/21 05:45:25;;;;;;;7.85;3.05;;;;;;;;;;5011223;28;20042;-71
2022/05/21 05:47:51;;;;;;;8.93;3.40;;;;;;;;;;5011429;28;20026;-74
2022/05/21 05:50:16;;;;;;;10.98;3.72;;;;;;;;;;5011285;28;20105;-70
2022/05/21 05:52:42;;;;;;;9.77;3.33;;;;;;;;;;5011135;28;20394;-71
2022/05/21 05:55:08;;;;;;;9.85;3.50;;;;;;;;;;5009985;28;20190;-74
2022/05/21 05:57:33;;;;;;;9.88;3.65;;;;;;;;;;5011040;28;20029;-73
2022/05/21 05:59:58;;;;;;;11.23;3.40;;;;;;;;;;5011071;28;20029;-73
2022/05/21 06:05:18;;;;;;;8.02;3.33;;;;;;;;;;5011416;28;20148;-71
2022/05/21 06:07:46;;;;;;;14.40;3.40;;;;;;;;;;5011022;28;20026;-73
2022/05/21 06:10:14;;;;;;;11.25;3.40;;;;;;;;;;5011194;28;20033;-70
2022/05/21 06:12:40;;;;;;;11.38;3.50;;;;;;;;;;5010720;28;20030;-70
2022/05/21 06:15:07;;;;;;;10.18;3.40;;;;;;;;;;5010940;28;20030;-68
2022/05/21 06:17:33;;;;;;;8.82;3.55;;;;;;;;;;5010486;28;20119;-71
2022/05/21 06:19:58;;;;;;;8.98;3.53;;;;;;;;;;5010931;28;20061;-69
2022/05/21 06:22:24;;;;;;;8.73;3.15;;;;;;;;;;5010415;28;20030;-71
2022/05/21 06:24:51;;;;;;;6.35;2.95;;;;;;;;;;5010831;28;20032;-71
2022/05/21 06:27:16;;;;;;;12.10;3.15;;;;;;;;;;5010951;28;20109;-69
2022/05/21 06:29:42;;;;;;;8.55;3.20;;;;;;;;;;5010597;28;20483;-67
2022/05/21 06:32:08;;;;;;;8.32;2.60;;;;;;;;;;5010338;28;20030;-67
2022/05/21 06:34:36;;;;;;;12.10;2.90;;;;;;;;;;5010591;28;20108;-67
2022/05/21 06:37:06;;;;;;;8.98;2.95;;;;;;;;;;5010286;28;20040;-73
2022/05/21 06:39:32;;;;;;;;;;;;;;;;;;5010976;28;20034;-67
2022/05/21 06:41:58;;;;;;;8.90;2.80;;;;;;;;;;5010516;28;19913;-68
2022/05/21 06:44:23;;;;;;;6.68;2.80;;;;;;;;;;5010255;28;20398;-69
2022/05/21 06:46:49;;;;;;;8.20;2.78;;;;;;;;;;5009019;28;20460;-68
2022/05/21 06:49:14;;;;;;;7.38;2.60;;;;;;;;;;5010228;28;20370;-67
2022/05/21 06:51:40;;;;;;;5.82;2.40;;;;;;;;;;5010153;28;20030;-68
2022/05/21 06:54:05;;;;;;;7.82;2.65;;;;;;;;;;5010142;28;20028;-67
2022/05/21 06:56:31;;;;;;;7.90;2.50;;;;;;;;;;5010251;28;20120;-67
2022/05/21 06:58:56;;;;;;;6.20;2.45;;;;;;;;;;5010783;28;20393;-72
2022/05/21 07:01:21;;;;;;;9.50;2.75;;;;;;;;;;5010144;28;20527;-67
2022/05/21 07:03:47;;;;;;;6.20;2.60;;;;;;;;;;5010079;28;20034;-66
2022/05/21 07:08:56;;;;;;;11.23;2.53;;;;;;;;;;5009472;28;20080;-72
2022/05/21 07:11:21;;;;;;;6.05;2.38;;;;;;;;;;5010098;28;20018;-69
2022/05/21 07:13:46;;;;;;;6.82;2.60;;;;;;;;;;5008404;28;20026;-67
2022/05/21 07:16:12;;;;;;;5.93;2.40;;;;;;;;;;5010219;28;20389;-67
2022/05/21 07:18:38;;;;;;;8.55;2.60;;;;;;;;;;5010345;28;20022;-68
2022/05/21 07:21:03;;;;;;;9.02;2.70;;;;;;;;;;5010026;28;20385;-66
2022/05/21 07:23:29;;;;;;;10.00;2.40;;;;;;;;;;5009714;28;20588;-68
2022/05/21 07:25:55;;;;;;;6.20;2.50;;;;;;;;;;5009837;28;20040;-67
2022/05/21 07:28:21;;;;;;;9.25;2.22;;;;;;;;;;5009864;28;20030;-73
2022/05/21 07:30:48;;;;;;;9.20;2.58;;;;;;;;;;5010199;28;20026;-68
2022/05/21 07:33:17;;;;;;;5.25;2.00;;;;;;;;;;5009816;28;20068;-68
2022/05/21 07:35:44;;;;;;;6.03;2.08;;;;;;;;;;5009870;28;20026;-67
2022/05/21 07:38:13;;;;;;;7.93;2.40;;;;;;;;;;5009823;28;20477;-68
2022/05/21 07:40:40;;;;;;;8.43;2.20;;;;;;;;;;5009952;28;20030;-71
2022/05/21 07:43:27;;;;;;;6.63;2.15;;;;;;;;;;5009625;28;20030;-68
2022/05/21 07:45:54;;;;;;;8.65;2.42;;;;;;;;;;5009719;28;20038;-68
2022/05/21 07:48:20;;;;;;;8.30;2.30;;;;;;;;;;5009820;28;20116;-69
2022/05/21 07:50:57;;;;;;;7.95;2.28;;;;;;;;;;5009849;28;20105;-69
2022/05/21 07:53:26;;;;;;;7.50;2.30;;;;;;;;;;5009510;28;20489;-69
2022/05/21 07:55:53;;;;;;;6.30;2.28;;;;;;;;;;5009783;28;20026;-67
2022/05/21 07:58:20;;;;;;;7.57;2.35;;;;;;;;;;5009598;28;20080;-71
2022/05/21 08:00:45;;;;;;;5.80;2.20;;;;;;;;;;5009733;28;20101;-67
2022/05/21 08:03:11;;;;;;;5.60;2.10;;;;;;;;;;5009418;28;20112;-68
2022/05/21 08:05:38;;;;;;;5.90;2.00;;;;;;;;;;5009621;28;20025;-68
2022/05/21 08:08:05;;;;;;;5.45;2.08;;;;;;;;;;5009500;28;20041;-67
2022/05/21 08:10:31;;;;;;;10.07;2.42;;;;;;;;;;5009765;28;20069;-72
2022/05/21 08:12:57;;;;;;;5.78;2.30;;;;;;;;;;5009402;28;20030;-71
2022/05/21 08:15:23;;;;;;;7.97;2.20;;;;;;;;;;5009634;28;20193;-71
2022/05/21 08:17:48;;;;;;;6.45;2.35;;;;;;;;;;5009176;28;20026;-69
2022/05/21 08:20:15;;;;;;;4.45;2.05;;;;;;;;;;5009041;28;20022;-68
2022/05/21 08:28:12;;;;;;;5.03;2.20;;;;;;;;;;5012992;28;20080;-68
2022/05/21 08:30:38;;;;;;;7.43;2.55;;;;;;;;;;5012758;28;20495;-68
2022/05/21 08:33:05;;;;;;;6.60;2.28;;;;;;;;;;5012537;28;20108;-71
2022/05/21 08:35:31;;;;;;;6.82;2.40;;;;;;;;;;5012216;28;20026;-69
2022/05/21 08:37:57;;;;;;;5.22;2.17;;;;;;;;;;5012609;28;20026;-69
2022/05/21 08:40:33;;;;;;;7.30;2.20;;;;;;;;;;5011242;28;20480;-68
2022/05/21 08:42:58;;;;;;;5.93;2.17;;;;;;;;;;5012929;28;20172;-67
2022/05/21 08:45:48;;;;;;;5.15;2.20;;;;;;;;;;5012420;28;20501;-67
2022/05/21 08:48:15;;;;;;;6.43;2.50;;;;;;;;;;5012326;28;20160;-70
2022/05/21 08:50:47;;;;;;;10.10;2.30;;;;;;;;;;5012332;28;20057;-66
2022/05/21 08:53:18;;;;;;;8.80;2.58;;;;;;;;;;5012192;28;20033;-69
2022/05/21 08:55:46;;;;;;;7.82;2.50;;;;;;;;;;5012068;28;20026;-68
2022/05/21 08:58:24;;;;;;;6.95;2.33;;;;;;;;;;5012351;28;20152;-67
2022/05/21 09:00:50;;;;;;;4.80;2.38;;;;;;;;;;5010858;28;20029;-68
2022/05/21 09:03:18;;;;;;;6.68;2.70;;;;;;;;;;5012083;28;20030;-69
2022/05/21 09:05:50;;;;;;;6.78;2.55;;;;;;;;;;5012097;28;20060;-67
2022/05/21 09:08:40;;;;;;;6.80;2.50;;;;;;;;;;5011960;28;20025;-69
2022/05/21 09:11:14;;;;;;;5.30;2.50;;;;;;;;;;5011832;28;20037;-68
2022/05/21 09:14:14;;;;;;;9.35;2.50;;;;;;;;;;5011957;28;20121;-70
2022/05/21 09:16:56;;;;;;;5.37;2.47;;;;;;;;;;5011983;28;20030;-70
2022/05/21 09:19:37;;;;;;;13.73;2.63;;;;;;;;;;5011939;28;20026;-68
2022/05/21 09:22:04;;;;;;;7.90;2.40;;;;;;;;;;5011844;28;20092;-72
2022/05/21 09:24:54;;;;;;;5.50;2.45;;;;;;;;;;5011782;28;20049;-67
2022/05/21 09:27:25;;;;;;;7.30;2.42;;;;;;;;;;5011602;28;20029;-70
2022/05/21 09:29:54;;;;;;;4.82;2.30;;;;;;;;;;5011693;28;20050;-71
2022/05/21 09:32:30;;;;;;;7.07;2.50;;;;;;;;;;5011321;28;20033;-74
2022/05/21 09:35:05;;;;;;;7.97;2.80;;;;;;;;;;5011616;28;20037;-72
2022/05/21 09:37:31;;;;;;;7.07;2.47;;;;;;;;;;5011215;28;20511;-69
2022/05/21 09:39:56;;;;;;;9.65;2.63;;;;;;;;;;5011551;28;20026;-72
2022/05/21 09:45:24;;;;;;;8.40;2.40;;;;;;;;;;5011289;28;20080;-71
2022/05/21 09:48:14;;;;;;;8.15;2.22;;;;;;;;;;5011127;28;20092;-71
2022/05/21 09:50:59;;;;;;;7.45;2.10;;;;;;;;;;5011114;28;20026;-71
2022/05/21 09:53:30;;;;;;;7.18;2.40;;;;;;;;;;5011126;28;20504;-68
2022/05/21 09:56:03;;;;;;;5.07;2.25;;;;;;;;;;5011232;28;20037;-70
2022/05/21 09:58:32;;;;;;;8.02;2.50;;;;;;;;;;5011403;28;20030;-70
2022/05/21 10:01:00;;;;;;;9.00;2.55;;;;;;;;;;5011211;28;20038;-69
2022/05/21 10:03:40;;;;;;;6.05;2.30;;;;;;;;;;5010919;28;20117;-73
2022/05/21 10:06:32;;;;;;;;;;;;;;;;;;5011354;28;20030;-70
2022/05/21 10:12:18;;;;;;;7.93;2.40;;;;;;;;;;5011428;28;20129;-69
2022/05/21 10:14:47;;;;;;;5.93;2.60;;;;;;;;;;5010948;28;20030;-69
2022/05/21 10:17:39;;;;;;;6.85;2.50;;;;;;;;;;5010857;28;20026;-69
2022/05/21 10:20:20;;;;;;;10.57;2.85;;;;;;;;;;5007991;28;20207;-66
2022/05/21 10:23:02;;;;;;;5.35;2.25;;;;;;;;;;5010503;28;20022;-68
2022/05/21 10:25:53;;;;;;;7.60;2.60;;;;;;;;;;5010524;28;20045;-69
2022/05/21 10:28:46;;;;;;;5.70;2.30;;;;;;;;;;5010717;28;20091;-69
2022/05/21 10:31:25;;;;;;;7.03;2.30;;;;;;;;;;5010817;28;20025;-68
2022/05/21 10:34:14;;;;;;;10.10;2.30;;;;;;;;;;5010329;28;20033;-72
2022/05/21 10:37:07;;;;;;;6.03;2.20;;;;;;;;;;5010410;28;20034;-70
2022/05/21 10:40:07;;;;;;;8.35;2.55;;;;;;;;;;5010493;28;20029;-67
2022/05/21 10:42:44;;;;;;;5.30;2.50;;;;;;;;;;5010440;28;20030;-68
2022/05/21 10:45:19;;;;;;;10.48;2.33;;;;;;;;;;5009364;28;20060;-68
2022/05/21 10:47:56;;;;;;;8.80;2.42;;;;;;;;;;5010420;28;20057;-68
2022/05/21 10:50:37;;;;;;;6.18;2.40;;;;;;;;;;5010142;28;20537;-69
2022/05/21 10:53:27;;;;;;;7.70;2.30;;;;;;;;;;5010503;28;20063;-68
2022/05/21 10:56:09;;;;;;;6.93;2.42;;;;;;;;;;5010089;28;20119;-71
2022/05/21 10:58:57;;;;;;;5.90;2.20;;;;;;;;;;5010266;28;20257;-68
2022/05/21 11:01:32;;;;;;;6.57;2.50;;;;;;;;;;5010040;28;20026;-69
2022/05/21 11:04:01;;;;;;;8.73;2.42;;;;;;;;;;5010191;28;20179;-68
2022/05/21 11:06:51;;;;;;;9.18;2.38;;;;;;;;;;5010262;28;20035;-70
2022/05/21 11:09:28;;;;;;;7.40;2.13;;;;;;;;;;5010375;28;20030;-71
2022/05/21 11:12:05;;;;;;;13.88;2.83;;;;;;;;;;5010625;28;20264;-72
2022/05/21 11:14:40;;;;;;;9.02;2.50;;;;;;;;;;5009919;28;20435;-68
2022/05/21 11:17:27;;;;;;;7.50;2.45;;;;;;;;;;5010091;28;20030;-71
2022/05/21 11:20:04;;;;;;;10.75;2.60;;;;;;;;;;5010059;28;20033;-73
2022/05/21 11:22:29;;;;;;;5.68;2.17;;;;;;;;;;5010047;28;20022;-68
2022/05/21 11:25:15;;;;;;;10.57;2.80;;;;;;;;;;5009840;28;20030;-72
2022/05/21 11:27:55;;;;;;;6.20;2.20;;;;;;;;;;5009863;28;20397;-72
2022/05/21 11:30:21;;;;;;;7.32;2.60;;;;;;;;;;5009796;28;20034;-72
2022/05/21 11:38:40;;;;;;;7.20;2.42;;;;;;;;;;5009953;28;20049;-68
2022/05/21 11:41:30;;;;;;;5.40;2.33;;;;;;;;;;5010188;28;20562;-74
2022/05/21 11:46:46;;;;;;;8.20;2.33;;;;;;;;;;5010237;28;20243;-73
2022/05/21 11:49:28;;;;;;;8.55;2.88;;;;;;;;;;5009721;28;20029;-73
2022/05/21 11:51:58;;;;;;;9.48;2.50;;;;;;;;;;5009570;28;20620;-72
2022/05/21 11:55:09;;;;;;;8.40;2.70;;;;;;;;;;5009594;28;20026;-71
2022/05/21 11:57:40;;;;;;;7.15;2.70;;;;;;;;;;5003435;28;20034;-70
2022/05/21 12:00:06;;;;;;;6.22;2.45;;;;;;;;;;5013512;28;20026;-69
2022/05/21 12:02:34;;;;;;;5.28;2.28;;;;;;;;;;5013273;28;20028;-71
2022/05/21 12:05:08;;;;;;;10.98;2.55;;;;;;;;;;5013185;28;20567;-68
2022/05/21 12:07:43;;;;;;;12.25;2.80;;;;;;;;;;5013131;28;20030;-72
2022/05/21 12:10:26;;;;;;;7.50;2.53;;;;;;;;;;5013518;28;20154;-69
2022/05/21 12:13:21;;;;;;;7.72;2.40;;;;;;;;;;5013298;28;20049;-71
2022/05/21 12:15:52;;;;;;;10.73;2.60;;;;;;;;;;5012316;28;20498;-72
2022/05/21 12:18:27;;;;;;;8.13;2.60;;;;;;;;;;5013166;28;20265;-71
2022/05/21 12:20:53;;;;;;;9.32;2.45;;;;;;;;;;5012844;28;20406;-73
2022/05/21 12:23:35;;;;;;;6.82;2.75;;;;;;;;;;5012841;28;20100;-69
2022/05/21 12:26:19;;;;;;;8.95;2.50;;;;;;;;;;5012742;28;20415;-72
2022/05/21 12:28:56;;;;;;;6.60;2.42;;;;;;;;;;5013322;28;20168;-73
2022/05/21 12:31:26;;;;;;;8.07;2.75;;;;;;;;;;5012811;28;20053;-69
2022/05/21 12:33:57;;;;;;;8.45;2.50;;;;;;;;;;5012752;28;20535;-68
2022/05/21 12:36:43;;;;;;;6.80;2.60;;;;;;;;;;5012065;28;20511;-68
2022/05/21 12:39:14;;;;;;;8.85;2.72;;;;;;;;;;5012892;28;20022;-68
2022/05/21 12:41:45;;;;;;;8.57;2.75;;;;;;;;;;5012806;28;20033;-68
2022/05/21 12:44:11;;;;;;;7.60;2.50;;;;;;;;;;5012506;28;20046;-67
2022/05/21 12:46:41;;;;;;;10.15;2.60;;;;;;;;;;5012535;28;20033;-70
2022/05/21 12:49:11;;;;;;;7.65;2.60;;;;;;;;;;5012439;28;20030;-68
2022/05/21 12:51:42;;;;;;;8.65;2.83;;;;;;;;;;5012553;28;20435;-67
2022/05/21 12:54:28;;;;;;;7.57;2.50;;;;;;;;;;5012526;28;20482;-70
2022/05/21 12:56:59;;;;;;;7.78;2.60;;;;;;;;;;5012448;28;20029;-72
2022/05/21 12:59:27;;;;;;;10.27;2.75;;;;;;;;;;5012450;28;20030;-68
2022/05/21 13:02:01;;;;;;;5.40;2.15;;;;;;;;;;5012258;28;20029;-71
2022/05/21 13:04:36;;;;;;;11.50;2.45;;;;;;;;;;5012289;28;20029;-67
2022/05/21 13:07:12;;;;;;;11.00;2.70;;;;;;;;;;5011286;28;20024;-68
2022/05/21 13:09:48;;;;;;;8.90;2.65;;;;;;;;;;5012249;28;20092;-69
2022/05/21 13:12:15;;;;;;;8.18;2.60;;;;;;;;;;5010955;28;20052;-68
2022/05/21 13:14:42;;;;;;;6.85;2.45;;;;;;;;;;5011797;28;20029;-69
2022/05/21 13:17:32;;;;;;;12.20;2.65;;;;;;;;;;5011986;28;20041;-69
2022/05/21 13:20:19;;;;;;;5.07;2.42;;;;;;;;;;5012050;28;20021;-68
2022/05/21 13:23:06;;;;;;;8.63;2.70;;;;;;;;;;5010649;28;20029;-68
2022/05/21 13:25:31;;;;;;;7.55;2.42;;;;;;;;;;5011845;28;20021;-68
2022/05/21 13:27:58;;;;;;;12.25;2.75;;;;;;;;;;5011963;28;20033;-69
2022/05/21 13:30:33;;;;;;;12.90;2.80;;;;;;;;;;5011566;28;20108;-68
2022/05/21 13:33:00;;;;;;;8.65;2.72;;;;;;;;;;5011685;28;20522;-70
2022/05/21 13:35:35;;;;;;;18.20;3.00;;;;;;;;;;5011365;28;20109;-69
2022/05/21 13:38:06;;;;;;;10.80;2.70;;;;;;;;;;5011687;28;20516;-69
2022/05/21 13:40:42;;;;;;;7.47;2.45;;;;;;;;;;5011672;28;20244;-69
2022/05/21 13:43:10;;;;;;;9.57;2.75;;;;;;;;;;5011745;28;20037;-69
2022/05/21 13:45:38;;;;;;;8.85;2.70;;;;;;;;;;5011101;28;20054;-69
2022/05/21 13:48:14;;;;;;;9.18;2.50;;;;;;;;;;5011371;28;20030;-68
2022/05/21 13:50:46;;;;;;;8.15;2.85;;;;;;;;;;5011332;28;20072;-69
2022/05/21 13:53:23;;;;;;;10.52;2.70;;;;;;;;;;5011445;28;20081;-69
2022/05/21 13:56:01;;;;;;;12.05;2.55;;;;;;;;;;5011146;28;20032;-67
2022/05/21 13:58:39;;;;;;;7.40;2.83;;;;;;;;;;5011411;28;20030;-68
2022/05/21 14:01:20;;;;;;;9.40;2.95;;;;;;;;;;5011363;28;20033;-68
2022/05/21 14:03:47;;;;;;;6.88;2.58;;;;;;;;;;5013126;28;20363;-70
2022/05/21 14:06:22;;;;;;;9.85;2.95;;;;;;;;;;5012174;28;20034;-69
2022/05/21 14:08:56;;;;;;;8.02;2.83;;;;;;;;;;5012445;28;20065;-71
2022/05/21 14:11:21;;;;;;;5.70;2.50;;;;;;;;;;5012158;28;20076;-68
2022/05/21 14:14:07;;;;;;;7.55;2.65;;;;;;;;;;5016655;28;20109;-68
2022/05/21 14:16:42;;;;;;;14.40;2.60;;;;;;;;;;5012941;28;20489;-72
2022/05/21 14:19:16;;;;;;;6.15;2.65;;;;;;;;;;5009935;28;20494;-69
2022/05/21 14:22:05;;;;;;;7.65;2.75;;;;;;;;;;5010608;28;20022;-68
2022/05/21 14:24:37;;;;;;;11.05;2.67;;;;;;;;;;5010868;28;20029;-68
2022/05/21 14:27:24;;;;;;;10.20;2.75;;;;;;;;;;5010309;28;20072;-73
2022/05/21 14:29:57;;;;;;;5.82;2.60;;;;;;;;;;5009499;28;20033;-68
2022/05/21 14:32:29;;;;;;;6.53;2.42;;;;;;;;;;5011011;28;20033;-73
2022/05/21 14:35:21;;;;;;;7.28;2.75;;;;;;;;;;5010653;28;20026;-73
2022/05/21 14:37:50;;;;;;;8.50;2.88;;;;;;;;;;5010407;28;20072;-71
2022/05/21 14:40:18;;;;;;;8.32;2.92;;;;;;;;;;5010497;28;20022;-70
2022/05/21 14:42:44;;;;;;;7.28;2.83;;;;;;;;;;5010429;28;20413;-71
2022/05/21 14:45:27;;;;;;;9.88;2.70;;;;;;;;;;5010140;28;20050;-72
2022/05/21 14:47:53;;;;;;;10.15;2.60;;;;;;;;;;5010219;28;20061;-72
2022/05/21 14:53:18;;;;;;;6.15;2.45;;;;;;;;;;5010276;28;20036;-72
2022/05/21 14:55:44;;;;;;;9.27;2.80;;;;;;;;;;5009947;28;20036;-69
2022/05/21 14:58:11;;;;;;;7.95;2.80;;;;;;;;;;5009985;28;20030;-72
2022/05/21 15:00:37;;;;;;;9.98;2.88;;;;;;;;;;5009234;28;20033;-69
2022/05/21 15:03:04;;;;;;;6.22;2.90;;;;;;;;;;5010265;28;20176;-67
2022/05/21 15:05:32;;;;;;;9.40;3.20;;;;;;;;;;5010153;28;20050;-70
2022/05/21 15:07:59;;;;;;;11.63;3.05;;;;;;;;;;5010515;28;20252;-69
2022/05/21 15:10:24;;;;;;;9.13;2.90;;;;;;;;;;5010510;28;20022;-72
2022/05/21 15:12:50;;;;;;;12.02;3.22;;;;;;;;;;5010136;28;20389;-70
2022/05/21 15:15:18;;;;;;;9.48;2.88;;;;;;;;;;5010427;28;20492;-70
2022/05/21 15:17:44;;;;;;;8.98;2.83;;;;;;;;;;5009933;28;20272;-71
2022/05/21 15:20:13;;;;;;;11.10;2.97;;;;;;;;;;5010054;28;20104;-72
2022/05/21 15:22:40;;;;;;;11.23;3.05;;;;;;;;;;5009956;28;20121;-72
2022/05/21 15:25:07;;;;;;;11.02;3.08;;;;;;;;;;5010043;28;20508;-72
2022/05/21 15:27:34;;;;;;;9.13;2.85;;;;;;;;;;5010078;28;20022;-71
2022/05/21 15:30:00;;;;;;;11.18;2.95;;;;;;;;;;5010558;28;20052;-70
2022/05/21 15:32:26;;;;;;;8.60;2.63;;;;;;;;;;5014139;28;20384;-71
2022/05/21 15:34:52;;;;;;;11.77;3.22;;;;;;;;;;5013901;28;20427;-72
2022/05/21 15:37:20;;;;;;;9.25;2.88;;;;;;;;;;5013821;28;20034;-71
2022/05/21 15:39:45;;;;;;;12.88;2.80;;;;;;;;;;5013946;28;20026;-70